sensor_id;sensor_type;location;lat;lon;timestamp;pressure;altitude;pressure_sealevel;temperature;humidity
74578;BME280;63173;49.086;33.418;2023-02-28T00:00:13;101514.66;;;-0.12;99.28
74578;BME280;63173;49.086;33.418;2023-02-28T00:02:43;101513.28;;;-0.08;99.10
74578;BME280;63173;49.086;33.418;2023-02-28T00:05:11;101524.59;;;-0.06;98.64
74578;BME280;63173;49.086;33.418;2023-02-28T00:07:37;101524.69;;;-0.14;98.58
74578;BME280;63173;49.086;33.418;2023-02-28T00:10:04;101526.97;;;-0.11;99.39
74578;BME280;63173;49.086;33.418;2023-02-28T00:12:32;101527.06;;;-0.05;99.19
74578;BME280;63173;49.086;33.418;2023-02-28T00:14:57;101531.47;;;0.03;99.34
74578;BME280;63173;49.086;33.418;2023-02-28T00:17:22;101519.81;;;-0.11;99.11
74578;BME280;63173;49.086;33.418;2023-02-28T00:19:49;101522.72;;;-0.06;99.39
74578;BME280;63173;49.086;33.418;2023-02-28T00:22:16;101527.63;;;-0.09;98.99
74578;BME280;63173;49.086;33.418;2023-02-28T00:24:41;101519.41;;;-0.08;99.27
74578;BME280;63173;49.086;33.418;2023-02-28T00:27:07;101520.69;;;-0.25;97.93
74578;BME280;63173;49.086;33.418;2023-02-28T00:29:32;101518.34;;;-0.13;98.92
74578;BME280;63173;49.086;33.418;2023-02-28T00:31:57;101506.41;;;-0.17;98.69
74578;BME280;63173;49.086;33.418;2023-02-28T00:34:23;101512.53;;;-0.17;98.47
74578;BME280;63173;49.086;33.418;2023-02-28T00:36:48;101509.44;;;-0.20;97.50
74578;BME280;63173;49.086;33.418;2023-02-28T00:39:14;101512.63;;;-0.10;98.42
74578;BME280;63173;49.086;33.418;2023-02-28T00:41:40;101527.03;;;-0.26;98.50
74578;BME280;63173;49.086;33.418;2023-02-28T00:44:05;101530.53;;;-0.25;98.38
74578;BME280;63173;49.086;33.418;2023-02-28T00:46:31;101531.81;;;-0.21;98.47
74578;BME280;63173;49.086;33.418;2023-02-28T00:48:56;101532.34;;;-0.26;97.25
74578;BME280;63173;49.086;33.418;2023-02-28T00:51:21;101539.91;;;-0.29;97.53
74578;BME280;63173;49.086;33.418;2023-02-28T00:53:47;101538.88;;;-0.28;96.73
74578;BME280;63173;49.086;33.418;2023-02-28T00:56:12;101532.09;;;-0.31;96.88
74578;BME280;63173;49.086;33.418;2023-02-28T00:58:39;101522.22;;;-0.30;96.49
74578;BME280;63173;49.086;33.418;2023-02-28T01:01:04;101536.50;;;-0.23;95.86
74578;BME280;63173;49.086;33.418;2023-02-28T01:03:30;101530.25;;;-0.30;96.29
74578;BME280;63173;49.086;33.418;2023-02-28T01:05:55;101529.25;;;-0.29;96.38
74578;BME280;63173;49.086;33.418;2023-02-28T01:08:21;101517.53;;;-0.28;95.79
74578;BME280;63173;49.086;33.418;2023-02-28T01:10:46;101518.56;;;-0.29;96.57
74578;BME280;63173;49.086;33.418;2023-02-28T01:13:13;101519.84;;;-0.40;96.52
74578;BME280;63173;49.086;33.418;2023-02-28T01:15:42;101519.09;;;-0.34;97.23
74578;BME280;63173;49.086;33.418;2023-02-28T01:18:09;101522.00;;;-0.50;96.85
74578;BME280;63173;49.086;33.418;2023-02-28T01:20:36;101532.50;;;-0.63;97.18
74578;BME280;63173;49.086;33.418;2023-02-28T01:23:02;101527.34;;;-0.64;96.88
74578;BME280;63173;49.086;33.418;2023-02-28T01:25:27;101531.91;;;-0.58;96.74
74578;BME280;63173;49.086;33.418;2023-02-28T01:27:53;101538.56;;;-0.69;95.46
74578;BME280;63173;49.086;33.418;2023-02-28T01:30:19;101546.81;;;-0.64;96.30
74578;BME280;63173;49.086;33.418;2023-02-28T01:32:44;101547.41;;;-0.68;95.83
74578;BME280;63173;49.086;33.418;2023-02-28T01:35:09;101544.16;;;-0.78;96.15
74578;BME280;63173;49.086;33.418;2023-02-28T01:37:35;101551.25;;;-0.71;95.32
74578;BME280;63173;49.086;33.418;2023-02-28T01:40:01;101550.06;;;-0.68;94.53
74578;BME280;63173;49.086;33.418;2023-02-28T01:42:26;101545.91;;;-0.56;95.03
74578;BME280;63173;49.086;33.418;2023-02-28T01:47:41;101552.81;;;-0.47;93.49
74578;BME280;63173;49.086;33.418;2023-02-28T01:50:13;101556.22;;;-0.53;93.74
74578;BME280;63173;49.086;33.418;2023-02-28T01:52:40;101559.38;;;-0.64;94.16
74578;BME280;63173;49.086;33.418;2023-02-28T01:55:06;101562.88;;;-0.49;93.76
74578;BME280;63173;49.086;33.418;2023-02-28T01:57:43;101575.44;;;-0.58;92.04
74578;BME280;63173;49.086;33.418;2023-02-28T02:00:14;101566.97;;;-0.47;92.14
74578;BME280;63173;49.086;33.418;2023-02-28T02:02:46;101582.34;;;-0.49;92.57
74578;BME280;63173;49.086;33.418;2023-02-28T02:05:17;101582.66;;;-0.44;93.25
74578;BME280;63173;49.086;33.418;2023-02-28T02:07:46;101593.03;;;-0.49;93.00
74578;BME280;63173;49.086;33.418;2023-02-28T02:10:21;101585.94;;;-0.56;93.14
74578;BME280;63173;49.086;33.418;2023-02-28T02:16:15;101591.72;;;-0.67;94.75
74578;BME280;63173;49.086;33.418;2023-02-28T02:21:38;101586.75;;;-0.70;93.34
74578;BME280;63173;49.086;33.418;2023-02-28T02:27:05;101590.88;;;-0.68;94.19
74578;BME280;63173;49.086;33.418;2023-02-28T02:32:53;101603.41;;;-0.68;93.33
74578;BME280;63173;49.086;33.418;2023-02-28T02:38:23;101603.03;;;-0.80;93.49
74578;BME280;63173;49.086;33.418;2023-02-28T02:46:31;101615.91;;;-0.83;93.79
74578;BME280;63173;49.086;33.418;2023-02-28T02:49:00;101618.06;;;-0.87;93.76
74578;BME280;63173;49.086;33.418;2023-02-28T02:51:30;101615.53;;;-0.80;92.98
74578;BME280;63173;49.086;33.418;2023-02-28T02:54:02;101627.75;;;-0.86;93.97
74578;BME280;63173;49.086;33.418;2023-02-28T02:56:31;101622.94;;;-0.90;92.23
74578;BME280;63173;49.086;33.418;2023-02-28T02:59:04;101628.94;;;-0.88;93.25
74578;BME280;63173;49.086;33.418;2023-02-28T03:01:32;101623.59;;;-0.88;92.81
74578;BME280;63173;49.086;33.418;2023-02-28T03:04:01;101625.19;;;-0.79;91.92
74578;BME280;63173;49.086;33.418;2023-02-28T03:06:28;101624.91;;;-0.84;91.72
74578;BME280;63173;49.086;33.418;2023-02-28T03:08:53;101626.84;;;-0.78;92.84
74578;BME280;63173;49.086;33.418;2023-02-28T03:11:19;101627.56;;;-0.84;92.05
74578;BME280;63173;49.086;33.418;2023-02-28T03:19:12;101631.25;;;-0.85;91.82
74578;BME280;63173;49.086;33.418;2023-02-28T03:22:13;101632.97;;;-0.93;91.90
74578;BME280;63173;49.086;33.418;2023-02-28T03:27:29;101643.28;;;-0.89;91.54
74578;BME280;63173;49.086;33.418;2023-02-28T03:30:10;101643.34;;;-0.98;92.71
74578;BME280;63173;49.086;33.418;2023-02-28T03:32:45;101646.66;;;-0.96;92.73
74578;BME280;63173;49.086;33.418;2023-02-28T03:35:22;101637.88;;;-1.04;93.03
74578;BME280;63173;49.086;33.418;2023-02-28T03:38:00;101638.72;;;-1.04;92.03
74578;BME280;63173;49.086;33.418;2023-02-28T03:40:28;101640.09;;;-1.08;91.87
74578;BME280;63173;49.086;33.418;2023-02-28T03:43:01;101644.06;;;-1.04;91.98
74578;BME280;63173;49.086;33.418;2023-02-28T03:45:29;101637.09;;;-1.05;92.16
74578;BME280;63173;49.086;33.418;2023-02-28T03:50:36;101634.03;;;-1.02;90.64
74578;BME280;63173;49.086;33.418;2023-02-28T03:53:32;101644.94;;;-1.11;91.83
74578;BME280;63173;49.086;33.418;2023-02-28T03:56:16;101656.88;;;-0.99;91.99
74578;BME280;63173;49.086;33.418;2023-02-28T03:58:49;101650.47;;;-1.13;91.73
74578;BME280;63173;49.086;33.418;2023-02-28T04:01:23;101655.44;;;-1.10;91.48
74578;BME280;63173;49.086;33.418;2023-02-28T04:03:50;101654.06;;;-1.06;91.21
74578;BME280;63173;49.086;33.418;2023-02-28T04:06:19;101652.78;;;-1.10;90.85
74578;BME280;63173;49.086;33.418;2023-02-28T04:08:45;101658.19;;;-0.95;91.22
74578;BME280;63173;49.086;33.418;2023-02-28T04:11:21;101660.63;;;-1.08;90.88
74578;BME280;63173;49.086;33.418;2023-02-28T04:13:47;101662.44;;;-1.09;91.02
74578;BME280;63173;49.086;33.418;2023-02-28T04:16:14;101662.31;;;-1.15;90.97
74578;BME280;63173;49.086;33.418;2023-02-28T04:18:39;101668.47;;;-1.15;90.33
74578;BME280;63173;49.086;33.418;2023-02-28T04:21:06;101673.81;;;-1.15;91.06
74578;BME280;63173;49.086;33.418;2023-02-28T04:23:31;101663.44;;;-1.10;90.08
74578;BME280;63173;49.086;33.418;2023-02-28T04:25:57;101664.28;;;-1.09;91.00
74578;BME280;63173;49.086;33.418;2023-02-28T04:28:22;101666.75;;;-1.08;90.53
74578;BME280;63173;49.086;33.418;2023-02-28T04:30:56;101668.25;;;-1.05;91.79
74578;BME280;63173;49.086;33.418;2023-02-28T04:33:22;101675.41;;;-1.06;91.82
74578;BME280;63173;49.086;33.418;2023-02-28T04:35:47;101681.94;;;-1.08;91.54
74578;BME280;63173;49.086;33.418;2023-02-28T04:38:13;101686.44;;;-1.09;90.05
74578;BME280;63173;49.086;33.418;2023-02-28T04:40:38;101692.84;;;-1.18;90.43
74578;BME280;63173;49.086;33.418;2023-02-28T04:43:04;101696.25;;;-1.32;91.25
74578;BME280;63173;49.086;33.418;2023-02-28T04:45:29;101705.56;;;-1.28;90.94
74578;BME280;63173;49.086;33.418;2023-02-28T04:47:57;101714.09;;;-1.10;90.90
74578;BME280;63173;49.086;33.418;2023-02-28T04:50:23;101716.44;;;-1.07;91.26
74578;BME280;63173;49.086;33.418;2023-02-28T04:52:48;101714.09;;;-1.10;91.35
74578;BME280;63173;49.086;33.418;2023-02-28T04:55:14;101707.63;;;-1.15;90.20
74578;BME280;63173;49.086;33.418;2023-02-28T04:57:39;101718.44;;;-1.09;90.59
74578;BME280;63173;49.086;33.418;2023-02-28T05:00:09;101712.06;;;-1.08;90.03
74578;BME280;63173;49.086;33.418;2023-02-28T05:02:37;101715.94;;;-1.10;89.83
74578;BME280;63173;49.086;33.418;2023-02-28T05:05:04;101721.81;;;-1.15;90.83
74578;BME280;63173;49.086;33.418;2023-02-28T05:07:30;101720.25;;;-1.09;89.80
74578;BME280;63173;49.086;33.418;2023-02-28T05:09:55;101723.47;;;-1.14;90.42
74578;BME280;63173;49.086;33.418;2023-02-28T05:12:21;101724.50;;;-1.23;89.48
74578;BME280;63173;49.086;33.418;2023-02-28T05:14:46;101719.72;;;-1.27;88.36
74578;BME280;63173;49.086;33.418;2023-02-28T05:17:11;101727.75;;;-1.35;89.05
74578;BME280;63173;49.086;33.418;2023-02-28T05:19:37;101732.50;;;-1.23;86.88
74578;BME280;63173;49.086;33.418;2023-02-28T05:22:02;101740.66;;;-1.16;87.30
74578;BME280;63173;49.086;33.418;2023-02-28T05:24:28;101740.75;;;-1.10;86.77
74578;BME280;63173;49.086;33.418;2023-02-28T05:26:54;101748.22;;;-1.36;86.41
74578;BME280;63173;49.086;33.418;2023-02-28T05:29:20;101744.03;;;-1.30;85.51
74578;BME280;63173;49.086;33.418;2023-02-28T05:31:45;101756.41;;;-1.37;85.54
74578;BME280;63173;49.086;33.418;2023-02-28T05:34:11;101753.94;;;-1.47;84.91
74578;BME280;63173;49.086;33.418;2023-02-28T05:36:38;101760.25;;;-1.40;84.03
74578;BME280;63173;49.086;33.418;2023-02-28T05:39:05;101754.75;;;-1.38;85.23
74578;BME280;63173;49.086;33.418;2023-02-28T05:41:31;101756.19;;;-1.28;84.90
74578;BME280;63173;49.086;33.418;2023-02-28T05:43:57;101760.41;;;-1.33;83.59
74578;BME280;63173;49.086;33.418;2023-02-28T05:46:23;101757.91;;;-1.35;84.28
74578;BME280;63173;49.086;33.418;2023-02-28T05:48:49;101764.44;;;-1.45;84.17
74578;BME280;63173;49.086;33.418;2023-02-28T05:51:16;101766.72;;;-1.34;83.90
74578;BME280;63173;49.086;33.418;2023-02-28T05:53:42;101759.50;;;-1.56;84.75
74578;BME280;63173;49.086;33.418;2023-02-28T05:56:08;101757.84;;;-1.57;83.75
74578;BME280;63173;49.086;33.418;2023-02-28T05:58:33;101764.63;;;-1.55;85.13
74578;BME280;63173;49.086;33.418;2023-02-28T06:01:00;101766.03;;;-1.67;84.05
74578;BME280;63173;49.086;33.418;2023-02-28T06:03:26;101762.53;;;-1.67;84.28
74578;BME280;63173;49.086;33.418;2023-02-28T06:05:52;101778.13;;;-1.56;83.44
74578;BME280;63173;49.086;33.418;2023-02-28T06:08:17;101769.19;;;-1.63;84.27
74578;BME280;63173;49.086;33.418;2023-02-28T06:10:43;101773.03;;;-1.74;84.24
74578;BME280;63173;49.086;33.418;2023-02-28T06:13:10;101772.03;;;-1.65;84.30
74578;BME280;63173;49.086;33.418;2023-02-28T06:15:37;101772.69;;;-1.71;84.19
74578;BME280;63173;49.086;33.418;2023-02-28T06:18:03;101765.84;;;-1.65;83.27
74578;BME280;63173;49.086;33.418;2023-02-28T06:20:29;101761.50;;;-1.66;83.65
74578;BME280;63173;49.086;33.418;2023-02-28T06:22:58;101766.50;;;-1.55;82.61
74578;BME280;63173;49.086;33.418;2023-02-28T06:25:25;101772.47;;;-1.53;83.52
74578;BME280;63173;49.086;33.418;2023-02-28T06:27:50;101772.31;;;-1.52;82.97
74578;BME280;63173;49.086;33.418;2023-02-28T06:30:16;101777.56;;;-1.44;81.76
74578;BME280;63173;49.086;33.418;2023-02-28T06:32:42;101777.81;;;-1.23;82.05
74578;BME280;63173;49.086;33.418;2023-02-28T06:35:07;101771.06;;;-1.33;81.55
74578;BME280;63173;49.086;33.418;2023-02-28T06:37:33;101773.91;;;-1.35;82.77
74578;BME280;63173;49.086;33.418;2023-02-28T06:39:58;101774.72;;;-1.34;82.16
74578;BME280;63173;49.086;33.418;2023-02-28T06:42:24;101764.69;;;-1.24;80.87
74578;BME280;63173;49.086;33.418;2023-02-28T06:44:56;101770.97;;;-1.17;81.67
74578;BME280;63173;49.086;33.418;2023-02-28T06:47:21;101764.09;;;-1.12;81.93
74578;BME280;63173;49.086;33.418;2023-02-28T06:49:47;101758.44;;;-1.47;80.73
74578;BME280;63173;49.086;33.418;2023-02-28T06:52:14;101764.81;;;-1.18;79.73
74578;BME280;63173;49.086;33.418;2023-02-28T06:54:40;101758.22;;;-1.30;80.67
74578;BME280;63173;49.086;33.418;2023-02-28T06:57:06;101761.13;;;-1.17;80.66
74578;BME280;63173;49.086;33.418;2023-02-28T06:59:31;101768.44;;;-1.11;79.66
74578;BME280;63173;49.086;33.418;2023-02-28T07:01:57;101762.81;;;-1.16;80.54
74578;BME280;63173;49.086;33.418;2023-02-28T07:04:22;101766.31;;;-0.93;79.70
74578;BME280;63173;49.086;33.418;2023-02-28T07:06:48;101769.38;;;-1.04;79.56
74578;BME280;63173;49.086;33.418;2023-02-28T07:09:13;101776.19;;;-0.93;77.76
74578;BME280;63173;49.086;33.418;2023-02-28T07:11:39;101781.50;;;-0.93;77.34
74578;BME280;63173;49.086;33.418;2023-02-28T07:14:06;101765.38;;;-1.00;77.94
74578;BME280;63173;49.086;33.418;2023-02-28T07:16:32;101767.09;;;-1.07;78.32
74578;BME280;63173;49.086;33.418;2023-02-28T07:18:57;101752.25;;;-1.09;77.12
74578;BME280;63173;49.086;33.418;2023-02-28T07:21:23;101764.16;;;-0.89;77.37
74578;BME280;63173;49.086;33.418;2023-02-28T07:23:48;101758.56;;;-0.79;77.24
74578;BME280;63173;49.086;33.418;2023-02-28T07:26:16;101764.16;;;-0.89;77.38
74578;BME280;63173;49.086;33.418;2023-02-28T07:28:43;101767.94;;;-0.61;75.94
74578;BME280;63173;49.086;33.418;2023-02-28T07:31:09;101769.72;;;-0.31;75.12
74578;BME280;63173;49.086;33.418;2023-02-28T07:33:35;101766.25;;;-0.39;74.51
74578;BME280;63173;49.086;33.418;2023-02-28T07:36:06;101773.09;;;-0.37;74.88
74578;BME280;63173;49.086;33.418;2023-02-28T07:38:34;101780.41;;;-0.53;73.81
74578;BME280;63173;49.086;33.418;2023-02-28T07:41:00;101776.22;;;-0.33;73.90
74578;BME280;63173;49.086;33.418;2023-02-28T07:43:29;101773.44;;;-0.17;73.77
74578;BME280;63173;49.086;33.418;2023-02-28T07:45:55;101779.53;;;-0.31;73.35
74578;BME280;63173;49.086;33.418;2023-02-28T07:48:21;101780.88;;;-0.50;73.62
74578;BME280;63173;49.086;33.418;2023-02-28T07:50:55;101786.19;;;-0.27;nan
74578;BME280;63173;49.086;33.418;2023-02-28T07:53:20;101778.13;;;-0.05;73.58
74578;BME280;63173;49.086;33.418;2023-02-28T07:55:46;101779.31;;;-0.07;73.29
74578;BME280;63173;49.086;33.418;2023-02-28T07:58:11;101774.63;;;-0.05;72.19
74578;BME280;63173;49.086;33.418;2023-02-28T08:00:36;101778.06;;;0.04;73.33
74578;BME280;63173;49.086;33.418;2023-02-28T08:03:02;101777.09;;;-0.04;73.21
74578;BME280;63173;49.086;33.418;2023-02-28T08:05:28;101776.50;;;0.09;73.99
74578;BME280;63173;49.086;33.418;2023-02-28T08:07:53;101787.34;;;-0.07;72.64
74578;BME280;63173;49.086;33.418;2023-02-28T08:10:19;101783.91;;;-0.16;73.46
74578;BME280;63173;49.086;33.418;2023-02-28T08:12:44;101784.81;;;-0.23;74.37
74578;BME280;63173;49.086;33.418;2023-02-28T08:15:11;101780.94;;;-0.21;75.64
74578;BME280;63173;49.086;33.418;2023-02-28T08:17:36;101785.59;;;-0.37;76.82
74578;BME280;63173;49.086;33.418;2023-02-28T08:20:02;101797.13;;;-0.37;76.16
74578;BME280;63173;49.086;33.418;2023-02-28T08:22:29;101787.03;;;-0.27;75.74
74578;BME280;63173;49.086;33.418;2023-02-28T08:24:54;101790.25;;;-0.17;74.67
74578;BME280;63173;49.086;33.418;2023-02-28T08:27:20;101795.34;;;-0.44;74.61
74578;BME280;63173;49.086;33.418;2023-02-28T08:29:45;101790.69;;;-0.28;74.85
74578;BME280;63173;49.086;33.418;2023-02-28T08:32:11;101784.66;;;-0.07;74.10
74578;BME280;63173;49.086;33.418;2023-02-28T08:34:39;101788.16;;;-0.21;73.62
74578;BME280;63173;49.086;33.418;2023-02-28T08:37:04;101780.53;;;-0.10;75.47
74578;BME280;63173;49.086;33.418;2023-02-28T08:39:29;101785.38;;;-0.13;75.03
74578;BME280;63173;49.086;33.418;2023-02-28T08:41:55;101791.72;;;-0.29;75.18
74578;BME280;63173;49.086;33.418;2023-02-28T08:44:20;101789.84;;;-0.28;76.58
74578;BME280;63173;49.086;33.418;2023-02-28T08:46:46;101783.53;;;-0.27;75.69
74578;BME280;63173;49.086;33.418;2023-02-28T08:49:11;101792.97;;;-0.39;76.36
74578;BME280;63173;49.086;33.418;2023-02-28T08:51:38;101789.69;;;-0.27;76.47
74578;BME280;63173;49.086;33.418;2023-02-28T08:54:03;101793.31;;;-0.42;75.65
74578;BME280;63173;49.086;33.418;2023-02-28T08:56:29;101785.59;;;-0.37;75.40
74578;BME280;63173;49.086;33.418;2023-02-28T08:58:56;101788.91;;;-0.35;75.57
74578;BME280;63173;49.086;33.418;2023-02-28T09:01:24;101788.34;;;-0.08;76.23
74578;BME280;63173;49.086;33.418;2023-02-28T09:03:51;101794.50;;;-0.45;76.19
74578;BME280;63173;49.086;33.418;2023-02-28T09:06:18;101795.81;;;-0.63;76.20
74578;BME280;63173;49.086;33.418;2023-02-28T09:08:44;101790.34;;;-0.47;74.51
74578;BME280;63173;49.086;33.418;2023-02-28T09:11:10;101788.03;;;-0.50;75.95
74578;BME280;63173;49.086;33.418;2023-02-28T09:13:37;101788.03;;;-0.28;75.18
74578;BME280;63173;49.086;33.418;2023-02-28T09:16:05;101791.72;;;-0.29;75.22
74578;BME280;63173;49.086;33.418;2023-02-28T09:18:31;101795.28;;;-0.36;75.52
74578;BME280;63173;49.086;33.418;2023-02-28T09:20:56;101794.38;;;-0.29;74.49
74578;BME280;63173;49.086;33.418;2023-02-28T09:23:23;101790.81;;;-0.21;74.49
74578;BME280;63173;49.086;33.418;2023-02-28T09:25:54;101789.44;;;-0.17;75.83
74578;BME280;63173;49.086;33.418;2023-02-28T09:28:20;101782.41;;;-0.33;76.63
74578;BME280;63173;49.086;33.418;2023-02-28T09:30:48;101781.69;;;-0.27;75.08
74578;BME280;63173;49.086;33.418;2023-02-28T09:33:15;101772.66;;;-0.26;75.21
74578;BME280;63173;49.086;33.418;2023-02-28T09:35:41;101777.53;;;-0.29;74.52
74578;BME280;63173;49.086;33.418;2023-02-28T09:38:08;101781.72;;;-0.12;74.61
74578;BME280;63173;49.086;33.418;2023-02-28T09:40:37;101774.91;;;-0.37;76.17
74578;BME280;63173;49.086;33.418;2023-02-28T09:43:05;101769.72;;;-0.31;77.31
74578;BME280;63173;49.086;33.418;2023-02-28T09:45:33;101770.69;;;-0.32;77.41
74578;BME280;63173;49.086;33.418;2023-02-28T09:48:09;101761.94;;;-0.40;77.56
74578;BME280;63173;49.086;33.418;2023-02-28T09:50:46;101764.91;;;-0.21;77.33
74578;BME280;63173;49.086;33.418;2023-02-28T09:53:33;101767.31;;;-0.26;76.12
74578;BME280;63173;49.086;33.418;2023-02-28T09:56:11;101770.09;;;-0.19;76.35
74578;BME280;63173;49.086;33.418;2023-02-28T10:03:55;101737.22;;;-0.20;76.90
74578;BME280;63173;49.086;33.418;2023-02-28T10:06:27;101745.06;;;-0.04;76.69
74578;BME280;63173;49.086;33.418;2023-02-28T10:09:19;101733.19;;;-0.16;77.39
74578;BME280;63173;49.086;33.418;2023-02-28T10:11:48;101742.94;;;-0.08;76.64
74578;BME280;63173;49.086;33.418;2023-02-28T10:14:18;101738.72;;;-0.17;77.79
74578;BME280;63173;49.086;33.418;2023-02-28T10:22:28;101723.69;;;-0.04;77.09
74578;BME280;63173;49.086;33.418;2023-02-28T10:24:55;101717.06;;;0.22;77.63
74578;BME280;63173;49.086;33.418;2023-02-28T10:27:30;101718.84;;;0.00;75.45
74578;BME280;63173;49.086;33.418;2023-02-28T10:29:58;101713.50;;;0.15;75.77
74578;BME280;63173;49.086;33.418;2023-02-28T10:32:35;101728.13;;;0.04;75.56
74578;BME280;63173;49.086;33.418;2023-02-28T10:37:37;101707.59;;;0.34;76.26
74578;BME280;63173;49.086;33.418;2023-02-28T10:40:05;101711.44;;;0.31;75.19
74578;BME280;63173;49.086;33.418;2023-02-28T10:42:31;101704.09;;;0.19;75.58
74578;BME280;63173;49.086;33.418;2023-02-28T10:47:35;101704.53;;;0.37;75.15
74578;BME280;63173;49.086;33.418;2023-02-28T10:50:27;101711.66;;;0.15;75.92
74578;BME280;63173;49.086;33.418;2023-02-28T10:52:54;101711.63;;;0.30;74.54
74578;BME280;63173;49.086;33.418;2023-02-28T10:55:22;101697.38;;;0.23;74.74
74578;BME280;63173;49.086;33.418;2023-02-28T10:57:48;101706.38;;;0.51;74.86
74578;BME280;63173;49.086;33.418;2023-02-28T11:00:18;101693.66;;;0.53;74.56
74578;BME280;63173;49.086;33.418;2023-02-28T11:02:44;101696.56;;;0.93;75.76
74578;BME280;63173;49.086;33.418;2023-02-28T11:07:53;101688.25;;;0.67;75.23
74578;BME280;63173;49.086;33.418;2023-02-28T11:10:20;101698.22;;;0.94;75.67
74578;BME280;63173;49.086;33.418;2023-02-28T11:12:47;101688.66;;;0.64;74.09
74578;BME280;63173;49.086;33.418;2023-02-28T11:18:14;101686.88;;;0.71;76.39
74578;BME280;63173;49.086;33.418;2023-02-28T11:20:49;101682.34;;;0.72;77.40
74578;BME280;63173;49.086;33.418;2023-02-28T11:23:16;101692.88;;;0.94;76.88
74578;BME280;63173;49.086;33.418;2023-02-28T11:25:47;101689.72;;;0.70;76.40
74578;BME280;63173;49.086;33.418;2023-02-28T11:28:27;101688.84;;;0.84;76.95
74578;BME280;63173;49.086;33.418;2023-02-28T11:33:29;101695.69;;;0.36;75.46
74578;BME280;63173;49.086;33.418;2023-02-28T11:36:01;101700.03;;;0.37;75.60
74578;BME280;63173;49.086;33.418;2023-02-28T11:38:27;101690.31;;;0.36;75.48
74578;BME280;63173;49.086;33.418;2023-02-28T11:46:40;101688.69;;;0.35;75.92
74578;BME280;63173;49.086;33.418;2023-02-28T11:52:00;101688.66;;;0.50;75.57
74578;BME280;63173;49.086;33.418;2023-02-28T12:11:25;101667.91;;;0.02;75.51
74578;BME280;63173;49.086;33.418;2023-02-28T12:19:25;101677.56;;;-0.27;76.28
74578;BME280;63173;49.086;33.418;2023-02-28T12:22:16;101677.75;;;-0.14;76.35
74578;BME280;63173;49.086;33.418;2023-02-28T12:27:15;101694.75;;;-0.29;75.30
74578;BME280;63173;49.086;33.418;2023-02-28T12:30:04;101676.28;;;-0.16;76.29
74578;BME280;63173;49.086;33.418;2023-02-28T12:32:38;101677.06;;;-0.30;76.64
74578;BME280;63173;49.086;33.418;2023-02-28T12:40:11;101680.97;;;-0.33;76.16
74578;BME280;63173;49.086;33.418;2023-02-28T12:42:44;101678.09;;;-0.17;76.72
74578;BME280;63173;49.086;33.418;2023-02-28T12:45:48;101675.88;;;-0.42;76.22
74578;BME280;63173;49.086;33.418;2023-02-28T12:48:20;101669.81;;;-0.36;77.09
74578;BME280;63173;49.086;33.418;2023-02-28T12:50:47;101674.31;;;-0.51;76.78
74578;BME280;63173;49.086;33.418;2023-02-28T12:54:07;101672.56;;;-0.44;77.81
74578;BME280;63173;49.086;33.418;2023-02-28T12:56:47;101668.31;;;-0.53;75.86
74578;BME280;63173;49.086;33.418;2023-02-28T12:59:39;101664.91;;;-0.47;76.94
74578;BME280;63173;49.086;33.418;2023-02-28T13:09:57;101662.63;;;-0.36;76.79
74578;BME280;63173;49.086;33.418;2023-02-28T13:12:24;101657.13;;;-0.34;77.94
74578;BME280;63173;49.086;33.418;2023-02-28T13:14:50;101646.78;;;-0.23;77.76
74578;BME280;63173;49.086;33.418;2023-02-28T13:17:20;101639.63;;;-0.37;76.34
74578;BME280;63173;49.086;33.418;2023-02-28T13:22:36;101644.56;;;-0.34;78.04
74578;BME280;63173;49.086;33.418;2023-02-28T13:27:52;101632.44;;;-0.36;77.39
74578;BME280;63173;49.086;33.418;2023-02-28T13:38:46;101643.09;;;-0.51;76.38
74578;BME280;63173;49.086;33.418;2023-02-28T13:46:27;101625.88;;;-0.48;74.95
74578;BME280;63173;49.086;33.418;2023-02-28T13:48:53;101627.84;;;-0.42;75.28
74578;BME280;63173;49.086;33.418;2023-02-28T13:54:19;101637.66;;;-0.57;74.88
74578;BME280;63173;49.086;33.418;2023-02-28T14:05:15;101621.91;;;-0.67;75.49
74578;BME280;63173;49.086;33.418;2023-02-28T14:07:47;101625.50;;;-0.45;76.06
74578;BME280;63173;49.086;33.418;2023-02-28T14:10:37;101624.28;;;-0.72;76.15
74578;BME280;63173;49.086;33.418;2023-02-28T14:15:41;101623.59;;;-0.88;76.29
74578;BME280;63173;49.086;33.418;2023-02-28T14:18:24;101613.78;;;-0.73;76.78
74578;BME280;63173;49.086;33.418;2023-02-28T14:20:52;101615.72;;;-0.82;77.60
74578;BME280;63173;49.086;33.418;2023-02-28T14:37:52;101606.75;;;-0.66;77.33
74578;BME280;63173;49.086;33.418;2023-02-28T14:40:38;101612.69;;;-0.79;77.81
74578;BME280;63173;49.086;33.418;2023-02-28T14:43:05;101603.50;;;-0.76;78.40
74578;BME280;63173;49.086;33.418;2023-02-28T14:45:42;101610.81;;;-0.93;78.21
74578;BME280;63173;49.086;33.418;2023-02-28T14:48:09;101608.38;;;-0.80;77.50
74578;BME280;63173;49.086;33.418;2023-02-28T14:50:36;101616.56;;;-0.81;78.08
74578;BME280;63173;49.086;33.418;2023-02-28T14:53:03;101606.59;;;-0.87;77.34
74578;BME280;63173;49.086;33.418;2023-02-28T14:55:31;101604.94;;;-0.88;78.22
74578;BME280;63173;49.086;33.418;2023-02-28T14:57:59;101606.03;;;-0.83;77.35
74578;BME280;63173;49.086;33.418;2023-02-28T15:00:28;101601.28;;;-0.87;78.10
74578;BME280;63173;49.086;33.418;2023-02-28T15:02:55;101609.59;;;-0.90;77.85
74578;BME280;63173;49.086;33.418;2023-02-28T15:05:34;101595.38;;;-0.83;78.27
74578;BME280;63173;49.086;33.418;2023-02-28T15:10:31;101590.94;;;-0.90;77.75
74578;BME280;63173;49.086;33.418;2023-02-28T15:18:48;101588.94;;;-0.88;77.74
74578;BME280;63173;49.086;33.418;2023-02-28T15:21:25;101579.66;;;-0.78;77.10
74578;BME280;63173;49.086;33.418;2023-02-28T15:26:43;101572.38;;;-0.99;78.42
74578;BME280;63173;49.086;33.418;2023-02-28T15:29:17;101572.00;;;-0.96;78.79
74578;BME280;63173;49.086;33.418;2023-02-28T15:31:47;101575.84;;;-0.98;77.89